createdAt,value
2018-08-23T00:01:14.461Z,100.00
2018-08-23T00:03:43.234Z,100.00
2018-08-23T00:06:12.002Z,100.00
2018-08-23T00:08:44.826Z,100.00
2018-08-23T00:11:13.568Z,100.00
2018-08-23T00:13:45.069Z,100.00
2018-08-23T00:16:13.949Z,100.00
2018-08-23T00:18:42.638Z,100.00
2018-08-23T00:21:16.516Z,100.00
2018-08-23T00:23:48.941Z,100.00
2018-08-23T00:26:18.029Z,100.00
2018-08-23T00:28:46.724Z,100.00
2018-08-23T00:31:15.501Z,100.00
2018-08-23T00:33:44.185Z,100.00
2018-08-23T00:36:12.873Z,100.00
2018-08-23T00:38:41.608Z,100.00
2018-08-23T00:41:10.314Z,100.00
2018-08-23T00:43:39.010Z,100.00
2018-08-23T00:46:12.830Z,100.00
2018-08-23T00:48:41.519Z,100.00
2018-08-23T00:51:10.209Z,100.00
2018-08-23T00:53:38.985Z,100.00
2018-08-23T00:56:20.461Z,100.00
2018-08-23T00:58:53.433Z,100.00
2018-08-23T01:01:22.167Z,100.00
2018-08-23T01:03:50.962Z,100.00
2018-08-23T01:06:23.017Z,100.00
2018-08-23T01:08:51.739Z,100.00
2018-08-23T01:11:20.430Z,100.00
2018-08-23T01:13:49.121Z,100.00
2018-08-23T01:16:17.833Z,100.00
2018-08-23T01:18:46.561Z,100.00
2018-08-23T01:21:15.273Z,100.00
2018-08-23T01:23:43.986Z,100.00
2018-08-23T01:26:12.760Z,100.00
2018-08-23T01:28:41.449Z,100.00
2018-08-23T01:31:22.985Z,100.00
2018-08-23T01:33:56.414Z,100.00
2018-08-23T01:36:30.544Z,100.00
2018-08-23T01:38:59.334Z,100.00
2018-08-23T01:41:28.078Z,100.00
2018-08-23T01:43:56.804Z,100.00
2018-08-23T01:46:33.297Z,100.00
2018-08-23T01:49:02.054Z,100.00
2018-08-23T01:51:30.746Z,100.00
2018-08-23T01:53:59.422Z,100.00
2018-08-23T01:56:28.112Z,100.00
2018-08-23T01:58:56.805Z,100.00
2018-08-23T02:01:25.496Z,100.00
2018-08-23T02:03:54.201Z,100.00
2018-08-23T02:06:27.038Z,100.00
2018-08-23T02:08:55.726Z,100.00
2018-08-23T02:11:24.423Z,100.00
2018-08-23T02:13:53.117Z,100.00
2018-08-23T02:16:21.801Z,100.00
2018-08-23T02:18:50.957Z,100.00
2018-08-23T02:21:19.694Z,100.00
2018-08-23T02:23:53.134Z,100.00
2018-08-23T02:26:21.816Z,100.00
2018-08-23T02:28:51.007Z,100.00
2018-08-23T02:31:19.813Z,100.00
2018-08-23T02:33:48.502Z,100.00
2018-08-23T02:36:17.598Z,100.00
2018-08-23T02:38:47.977Z,100.00
2018-08-23T02:41:17.386Z,100.00
2018-08-23T02:43:46.605Z,100.00
2018-08-23T02:46:15.398Z,100.00
2018-08-23T02:48:44.110Z,100.00
2018-08-23T02:51:12.850Z,100.00
2018-08-23T02:53:43.051Z,100.00
2018-08-23T02:56:19.566Z,100.00
2018-08-23T02:58:59.046Z,100.00
2018-08-23T03:01:31.720Z,100.00
2018-08-23T03:04:09.519Z,100.00
2018-08-23T03:06:44.178Z,100.00
2018-08-23T03:09:12.876Z,100.00
2018-08-23T03:11:41.612Z,100.00
2018-08-23T03:14:10.350Z,100.00
2018-08-23T03:16:49.898Z,100.00
2018-08-23T03:19:18.713Z,100.00
2018-08-23T03:21:47.849Z,100.00
2018-08-23T03:24:20.802Z,100.00
2018-08-23T03:26:49.800Z,100.00
2018-08-23T03:29:18.527Z,100.00
2018-08-23T03:31:47.247Z,100.00
2018-08-23T03:34:15.950Z,100.00
2018-08-23T03:36:44.665Z,100.00
2018-08-23T03:39:13.374Z,100.00
2018-08-23T03:41:42.084Z,100.00
2018-08-23T03:44:53.999Z,100.00
2018-08-23T03:47:23.197Z,100.00
2018-08-23T03:49:52.203Z,100.00
2018-08-23T03:52:23.162Z,100.00
2018-08-23T03:54:56.452Z,99.97
2018-08-23T03:57:29.290Z,99.18
2018-08-23T03:59:57.998Z,96.67
2018-08-23T04:02:26.773Z,92.63
2018-08-23T04:05:05.107Z,88.87
2018-08-23T04:07:33.813Z,86.16
2018-08-23T04:10:02.587Z,81.88
2018-08-23T04:12:31.299Z,79.77
2018-08-23T04:15:17.172Z,76.79
2018-08-23T04:17:46.704Z,75.57
2018-08-23T04:20:15.551Z,73.25
2018-08-23T04:22:44.291Z,70.07
2018-08-23T04:25:12.991Z,67.61
2018-08-23T04:27:41.767Z,66.79
2018-08-23T04:30:10.916Z,64.47
2018-08-23T04:32:41.511Z,64.08
2018-08-23T04:35:12.127Z,61.52
2018-08-23T04:37:40.924Z,59.59
2018-08-23T04:40:10.585Z,58.10
2018-08-23T04:42:39.319Z,56.05
2018-08-23T04:45:11.649Z,54.18
2018-08-23T04:47:49.737Z,50.88
2018-08-23T04:50:18.499Z,50.57
2018-08-23T04:52:47.228Z,48.79
2018-08-23T04:55:16.047Z,49.49
2018-08-23T04:57:44.767Z,47.75
2018-08-23T05:00:13.536Z,47.63
2018-08-23T05:02:42.266Z,46.46
2018-08-23T05:05:10.998Z,44.42
2018-08-23T05:07:39.765Z,45.88
2018-08-23T05:10:08.525Z,43.66
2018-08-23T05:12:37.331Z,44.65
2018-08-23T05:15:06.070Z,43.32
2018-08-23T05:17:34.800Z,42.74
2018-08-23T05:20:03.568Z,43.79
2018-08-23T05:22:32.295Z,39.33
2018-08-23T05:25:06.045Z,39.45
2018-08-23T05:27:45.304Z,39.17
2018-08-23T05:30:14.058Z,36.90
2018-08-23T05:32:42.811Z,37.16
2018-08-23T05:35:11.575Z,39.42
2018-08-23T05:37:40.351Z,37.45
2018-08-23T05:40:09.128Z,37.27
2018-08-23T05:42:51.263Z,36.13
2018-08-23T05:45:23.169Z,35.68
2018-08-23T05:47:52.176Z,36.01
2018-08-23T05:50:24.984Z,37.14
2018-08-23T05:52:53.738Z,34.70
2018-08-23T05:55:22.489Z,36.08
2018-08-23T05:57:51.418Z,35.78
2018-08-23T06:00:20.250Z,34.34
2018-08-23T06:02:49.117Z,33.68
2018-08-23T06:05:17.921Z,31.48
2018-08-23T06:07:46.649Z,32.34
2018-08-23T06:10:15.416Z,31.35
2018-08-23T06:12:44.137Z,32.19
2018-08-23T06:15:12.934Z,31.91
2018-08-23T06:17:41.752Z,31.23
2018-08-23T06:20:10.573Z,31.87
2018-08-23T06:22:39.277Z,30.96
2018-08-23T06:25:08.006Z,30.19
2018-08-23T06:27:36.750Z,30.33
2018-08-23T06:30:06.078Z,28.84
2018-08-23T06:32:34.823Z,28.32
2018-08-23T06:35:03.555Z,28.40
2018-08-23T06:37:32.523Z,29.04
2018-08-23T06:40:01.278Z,29.29
2018-08-23T06:42:45.812Z,29.21
2018-08-23T06:45:14.560Z,27.68
2018-08-23T06:47:45.337Z,28.61
2018-08-23T06:50:14.123Z,28.19
2018-08-23T06:52:48.126Z,28.36
2018-08-23T06:55:21.051Z,27.88
2018-08-23T06:57:51.348Z,28.20
2018-08-23T07:00:26.505Z,28.01
2018-08-23T07:02:55.321Z,27.19
2018-08-23T07:05:24.362Z,26.42
2018-08-23T07:07:53.193Z,26.12
2018-08-23T07:10:21.943Z,25.42
2018-08-23T07:12:50.854Z,28.71
2018-08-23T07:15:19.603Z,27.08
2018-08-23T07:17:48.544Z,25.57
2018-08-23T07:20:17.591Z,25.69
2018-08-23T07:22:46.390Z,26.39
2018-08-23T07:25:16.664Z,27.39
2018-08-23T07:27:45.489Z,25.63
2018-08-23T07:30:18.526Z,25.48
2018-08-23T07:32:48.430Z,25.58
2018-08-23T07:35:18.916Z,25.97
2018-08-23T07:37:48.983Z,25.07
2018-08-23T07:40:19.849Z,24.25
2018-08-23T07:42:50.117Z,25.16
2018-08-23T07:45:18.889Z,24.74
2018-08-23T07:47:49.928Z,25.99
2018-08-23T07:50:18.709Z,25.28
2018-08-23T07:52:49.823Z,24.03
2018-08-23T07:55:18.486Z,24.40
2018-08-23T07:57:47.336Z,21.54
2018-08-23T08:00:35.879Z,22.94
2018-08-23T08:03:04.643Z,23.87
2018-08-23T08:05:35.969Z,22.97
2018-08-23T08:08:04.925Z,23.53
2018-08-23T08:10:36.718Z,22.59
2018-08-23T08:13:05.448Z,22.73
2018-08-23T08:15:34.262Z,21.79
2018-08-23T08:18:06.851Z,22.21
2018-08-23T08:20:35.577Z,22.69
2018-08-23T08:23:04.333Z,23.13
2018-08-23T08:25:33.534Z,25.31
2018-08-23T08:28:02.241Z,23.85
2018-08-23T08:30:42.473Z,25.71
2018-08-23T08:33:16.788Z,25.20
2018-08-23T08:35:46.249Z,25.04
2018-08-23T08:38:15.040Z,23.88
2018-08-23T08:40:43.822Z,24.68
2018-08-23T08:43:12.551Z,23.91
2018-08-23T08:45:41.395Z,24.91
2018-08-23T08:48:20.277Z,24.08
2018-08-23T08:51:06.304Z,24.82
2018-08-23T08:53:35.512Z,23.58
2018-08-23T08:56:04.247Z,23.43
2018-08-23T08:58:32.974Z,24.67
2018-08-23T09:01:01.720Z,24.44
2018-08-23T09:03:37.841Z,27.24
2018-08-23T09:06:09.886Z,26.25
2018-08-23T09:08:39.304Z,28.39
2018-08-23T09:11:08.120Z,26.56
2018-08-23T09:13:42.037Z,26.14
2018-08-23T09:16:11.726Z,26.28
2018-08-23T09:18:43.593Z,27.20
2018-08-23T09:21:12.364Z,26.54
2018-08-23T09:23:41.206Z,25.64
2018-08-23T09:26:09.931Z,26.03
2018-08-23T09:28:38.674Z,25.45
2018-08-23T09:31:07.440Z,26.46
2018-08-23T09:33:36.149Z,26.24
2018-08-23T09:36:05.222Z,27.22
2018-08-23T09:38:33.943Z,27.78
2018-08-23T09:41:02.701Z,27.85
2018-08-23T09:43:31.896Z,27.92
2018-08-23T09:46:00.596Z,29.07
2018-08-23T09:48:29.330Z,29.02
2018-08-23T09:50:58.835Z,29.52
2018-08-23T09:53:27.569Z,28.00
2018-08-23T09:55:57.198Z,27.03
2018-08-23T09:58:31.140Z,27.95
2018-08-23T10:01:04.987Z,28.04
2018-08-23T10:03:38.832Z,26.66
2018-08-23T10:06:13.112Z,27.00
2018-08-23T10:08:46.850Z,26.28
2018-08-23T10:11:21.263Z,25.61
2018-08-23T10:13:55.063Z,25.35
2018-08-23T10:16:28.886Z,27.44
2018-08-23T10:19:01.538Z,25.64
2018-08-23T10:21:35.427Z,24.93
2018-08-23T10:24:13.022Z,23.89
2018-08-23T10:26:41.889Z,27.10
2018-08-23T10:29:10.650Z,27.56
2018-08-23T10:31:39.599Z,27.99
2018-08-23T10:34:08.434Z,28.10
2018-08-23T10:36:37.280Z,28.25
2018-08-23T10:39:09.036Z,29.48
2018-08-23T10:41:37.903Z,28.18
2018-08-23T10:44:06.907Z,29.58
2018-08-23T10:46:42.882Z,29.21
2018-08-23T10:49:11.900Z,27.88
2018-08-23T10:51:42.363Z,28.28
2018-08-23T10:54:14.067Z,28.30
2018-08-23T10:56:42.887Z,26.11
2018-08-23T10:59:11.790Z,28.03
2018-08-23T11:01:40.460Z,26.97
2018-08-23T11:04:10.396Z,28.56
2018-08-23T11:06:44.373Z,27.66
2018-08-23T11:09:28.016Z,26.95
2018-08-23T11:11:57.042Z,27.18
2018-08-23T11:14:30.974Z,28.66
2018-08-23T11:17:04.964Z,27.07
2018-08-23T11:21:46.672Z,25.53
2018-08-23T11:24:15.444Z,24.16
2018-08-23T11:26:44.268Z,25.08
2018-08-23T11:29:13.170Z,25.63
2018-08-23T11:31:41.925Z,27.88
2018-08-23T11:34:10.761Z,31.05
2018-08-23T11:36:39.966Z,30.06
2018-08-23T11:39:09.598Z,29.05
2018-08-23T11:41:38.401Z,27.57
2018-08-23T11:44:07.154Z,26.54
2018-08-23T11:46:35.945Z,24.64
2018-08-23T11:49:04.810Z,24.62
2018-08-23T11:51:33.533Z,25.19
2018-08-23T11:54:02.438Z,26.83
2018-08-23T11:56:31.310Z,25.55
2018-08-23T11:59:00.337Z,25.70
2018-08-23T12:01:29.180Z,24.25
2018-08-23T12:03:57.990Z,24.80
2018-08-23T12:06:26.847Z,25.56
2018-08-23T12:08:55.661Z,27.20
2018-08-23T12:11:24.536Z,25.80
2018-08-23T12:13:53.302Z,26.51
2018-08-23T12:16:22.147Z,26.26
2018-08-23T12:18:51.141Z,26.17
2018-08-23T12:21:19.991Z,26.14
2018-08-23T12:23:48.846Z,25.85
2018-08-23T12:26:18.405Z,26.96
2018-08-23T12:28:52.177Z,26.89
2018-08-23T12:31:20.941Z,27.45
2018-08-23T12:33:49.808Z,27.67
2018-08-23T12:36:23.672Z,26.75
2018-08-23T12:38:57.590Z,26.13
2018-08-23T12:41:31.862Z,26.36
2018-08-23T12:44:00.708Z,26.40
2018-08-23T12:46:29.718Z,27.43
2018-08-23T12:48:59.195Z,25.82
2018-08-23T12:51:28.153Z,24.70
2018-08-23T12:53:57.017Z,25.82
2018-08-23T12:56:25.799Z,25.63
2018-08-23T12:58:54.731Z,25.65
2018-08-23T13:01:23.567Z,25.99
2018-08-23T13:03:52.433Z,26.98
2018-08-23T13:06:21.277Z,28.99
2018-08-23T13:08:50.172Z,29.68
2018-08-23T13:11:18.967Z,31.17
2018-08-23T13:13:47.684Z,32.94
2018-08-23T13:16:16.561Z,32.74
2018-08-23T13:18:45.449Z,33.13
2018-08-23T13:21:14.270Z,33.66
2018-08-23T13:23:46.160Z,33.23
2018-08-23T13:26:15.089Z,34.11
2018-08-23T13:28:43.909Z,34.42
2018-08-23T13:31:12.783Z,33.95
2018-08-23T13:33:41.590Z,34.17
2018-08-23T13:36:10.496Z,34.07
2018-08-23T13:38:39.382Z,34.87
2018-08-23T13:41:08.238Z,34.30
2018-08-23T13:43:37.170Z,34.46
2018-08-23T13:46:05.877Z,34.35
2018-08-23T13:48:34.769Z,34.70
2018-08-23T13:51:03.641Z,34.65
2018-08-23T13:53:32.510Z,36.04
2018-08-23T13:56:01.242Z,35.16
2018-08-23T13:58:30.107Z,34.54
2018-08-23T14:00:58.979Z,34.89
2018-08-23T14:03:27.764Z,35.06
2018-08-23T14:05:56.565Z,35.51
2018-08-23T14:08:25.342Z,36.53
2018-08-23T14:10:54.095Z,35.51
2018-08-23T14:13:23.033Z,35.42
2018-08-23T14:15:56.933Z,35.84
2018-08-23T14:18:25.746Z,35.21
2018-08-23T14:20:54.592Z,34.95
2018-08-23T14:23:23.425Z,34.97
2018-08-23T14:25:52.191Z,34.83
2018-08-23T14:28:21.049Z,35.22
2018-08-23T14:30:49.895Z,36.03
2018-08-23T14:33:18.743Z,35.69
2018-08-23T14:35:47.755Z,35.78
2018-08-23T14:38:16.589Z,36.00
2018-08-23T14:40:45.417Z,36.58
2018-08-23T14:43:14.251Z,36.32
2018-08-23T14:45:43.082Z,35.85
2018-08-23T14:48:19.317Z,35.61
2018-08-23T14:50:54.829Z,35.79
2018-08-23T14:53:29.856Z,36.33
2018-08-23T14:56:03.800Z,37.34
2018-08-23T14:58:32.741Z,36.74
2018-08-23T15:01:01.628Z,37.35
2018-08-23T15:03:30.519Z,37.85
2018-08-23T15:05:59.324Z,38.01
2018-08-23T15:08:28.194Z,38.05
2018-08-23T15:10:57.004Z,38.12
2018-08-23T15:13:25.836Z,38.82
2018-08-23T15:15:54.832Z,38.45
2018-08-23T15:18:23.736Z,40.52
2018-08-23T15:20:52.640Z,38.41
2018-08-23T15:23:21.335Z,40.33
2018-08-23T15:25:50.072Z,39.92
2018-08-23T15:28:18.810Z,39.33
2018-08-23T15:30:47.550Z,39.99
2018-08-23T15:33:16.336Z,41.33
2018-08-23T15:35:45.140Z,40.28
2018-08-23T15:38:13.886Z,40.51
2018-08-23T15:40:42.627Z,39.15
2018-08-23T15:43:11.362Z,40.20
2018-08-23T15:45:40.190Z,40.87
2018-08-23T15:48:08.937Z,39.92
2018-08-23T15:50:37.724Z,40.13
2018-08-23T15:53:06.524Z,39.53
2018-08-23T15:55:35.573Z,41.56
2018-08-23T15:58:04.265Z,41.48
2018-08-23T16:00:41.078Z,41.90
2018-08-23T16:03:10.045Z,43.20
2018-08-23T16:05:39.502Z,42.84
2018-08-23T16:08:08.219Z,43.73
2018-08-23T16:10:36.981Z,43.15
2018-08-23T16:13:05.717Z,43.90
2018-08-23T16:15:34.578Z,42.69
2018-08-23T16:18:08.427Z,43.31
2018-08-23T16:20:42.517Z,43.12
2018-08-23T16:23:11.226Z,44.23
2018-08-23T16:25:45.069Z,43.44
2018-08-23T16:28:13.864Z,44.40
2018-08-23T16:30:43.640Z,44.41
2018-08-23T16:33:12.988Z,45.11
2018-08-23T16:35:42.283Z,47.64
2018-08-23T16:38:11.000Z,47.50
2018-08-23T16:40:39.838Z,47.64
2018-08-23T16:43:08.592Z,52.24
2018-08-23T16:45:37.303Z,55.67
2018-08-23T16:48:06.107Z,61.53
2018-08-23T16:50:34.868Z,62.83
2018-08-23T16:53:03.807Z,63.72
2018-08-23T16:55:32.561Z,61.29
2018-08-23T16:58:01.306Z,64.30
2018-08-23T17:00:30.047Z,65.76
2018-08-23T17:02:58.879Z,65.06
2018-08-23T17:05:27.606Z,67.56
2018-08-23T17:07:56.380Z,67.29
2018-08-23T17:10:25.082Z,67.36
2018-08-23T17:12:54.026Z,67.73
2018-08-23T17:15:22.923Z,68.37
2018-08-23T17:17:55.610Z,67.44
2018-08-23T17:20:24.357Z,68.35
2018-08-23T17:22:53.049Z,71.68
2018-08-23T17:25:21.934Z,71.51
2018-08-23T17:27:50.703Z,69.85
2018-08-23T17:30:19.486Z,70.93
2018-08-23T17:32:48.258Z,69.17
2018-08-23T17:35:16.962Z,67.30
2018-08-23T17:37:45.759Z,68.41
2018-08-23T17:40:14.469Z,68.63
2018-08-23T17:42:43.763Z,70.69
2018-08-23T17:45:13.807Z,72.27
2018-08-23T17:47:42.591Z,73.98
2018-08-23T17:50:11.499Z,73.44
2018-08-23T17:52:40.329Z,72.35
2018-08-23T17:55:09.116Z,70.25
2018-08-23T17:57:37.909Z,73.82
2018-08-23T18:00:06.731Z,75.19
2018-08-23T18:02:35.526Z,74.84
2018-08-23T18:05:04.301Z,74.54
2018-08-23T18:07:33.077Z,79.77
2018-08-23T18:10:01.850Z,80.92
2018-08-23T18:12:30.694Z,78.82
2018-08-23T18:14:59.624Z,77.97
2018-08-23T18:17:28.361Z,80.97
2018-08-23T18:19:57.122Z,80.95
2018-08-23T18:22:25.894Z,81.14
2018-08-23T18:24:54.688Z,82.75
2018-08-23T18:27:23.490Z,84.96
2018-08-23T18:29:52.222Z,86.87
2018-08-23T18:32:21.023Z,83.56
2018-08-23T18:34:49.799Z,84.17
2018-08-23T18:37:18.549Z,87.39
2018-08-23T18:39:47.286Z,86.94
2018-08-23T18:42:16.030Z,88.29
2018-08-23T18:44:44.790Z,87.05
2018-08-23T18:47:13.923Z,85.12
2018-08-23T18:49:42.688Z,87.07
2018-08-23T18:52:11.440Z,87.84
2018-08-23T18:54:40.247Z,87.36
2018-08-23T18:57:09.032Z,86.76
2018-08-23T18:59:37.823Z,89.71
2018-08-23T19:02:06.671Z,90.41
2018-08-23T19:04:35.390Z,87.71
2018-08-23T19:07:04.338Z,89.64
2018-08-23T19:09:33.149Z,90.56
2018-08-23T19:12:02.002Z,90.19
2018-08-23T19:14:30.749Z,89.60
2018-08-23T19:17:04.900Z,91.43
2018-08-23T19:19:33.681Z,89.60
2018-08-23T19:22:02.454Z,90.82
2018-08-23T19:24:31.241Z,91.12
2018-08-23T19:27:00.037Z,91.35
2018-08-23T19:29:28.906Z,90.73
2018-08-23T19:31:57.649Z,90.85
2018-08-23T19:34:26.518Z,90.97
2018-08-23T19:36:55.306Z,92.40
2018-08-23T19:39:24.695Z,91.97
2018-08-23T19:41:55.954Z,93.09
2018-08-23T19:44:24.755Z,91.67
2018-08-23T19:46:58.743Z,91.85
2018-08-23T19:49:33.048Z,93.04
2018-08-23T19:52:01.935Z,93.99
2018-08-23T19:54:30.905Z,94.51
2018-08-23T19:56:59.729Z,94.01
2018-08-23T19:59:30.961Z,93.92
2018-08-23T20:01:59.993Z,94.33
2018-08-23T20:04:28.838Z,94.92
2018-08-23T20:06:57.684Z,95.44
2018-08-23T20:09:26.409Z,95.91
2018-08-23T20:11:57.462Z,95.28
2018-08-23T20:14:26.348Z,95.38
2018-08-23T20:16:57.207Z,96.52
2018-08-23T20:19:26.046Z,96.38
2018-08-23T20:21:54.921Z,96.88
2018-08-23T20:24:23.741Z,96.12
2018-08-23T20:26:52.585Z,95.68
2018-08-23T20:29:21.717Z,95.67
2018-08-23T20:31:50.512Z,95.67
2018-08-23T20:34:21.991Z,96.13
2018-08-23T20:36:54.781Z,96.47
2018-08-23T20:39:24.900Z,97.30
2018-08-23T20:41:57.818Z,97.43
2018-08-23T20:44:29.927Z,96.45
2018-08-23T20:47:01.764Z,96.75
2018-08-23T20:49:33.864Z,95.39
2018-08-23T20:52:05.573Z,97.07
2018-08-23T20:54:37.326Z,96.24
2018-08-23T20:57:09.462Z,97.91
2018-08-23T20:59:38.284Z,97.74
2018-08-23T21:02:07.033Z,97.42
2018-08-23T21:04:35.946Z,96.72
2018-08-23T21:07:04.780Z,97.60
2018-08-23T21:09:33.595Z,97.34
2018-08-23T21:12:02.326Z,96.69
2018-08-23T21:14:31.128Z,94.54
2018-08-23T21:16:59.928Z,95.86
2018-08-23T21:19:28.685Z,96.95
2018-08-23T21:21:57.484Z,97.49
2018-08-23T21:24:26.328Z,96.77
2018-08-23T21:26:55.105Z,97.73
2018-08-23T21:29:23.924Z,97.46
2018-08-23T21:31:52.669Z,96.60
2018-08-23T21:34:21.469Z,96.46
2018-08-23T21:36:50.286Z,96.09
2018-08-23T21:39:19.044Z,94.30
2018-08-23T21:41:47.792Z,91.85
2018-08-23T21:44:16.640Z,89.57
2018-08-23T21:46:45.426Z,92.02
2018-08-23T21:49:14.213Z,93.34
2018-08-23T21:51:43.032Z,91.18
2018-08-23T21:54:11.813Z,91.87
2018-08-23T21:56:40.514Z,91.58
2018-08-23T21:59:09.311Z,90.50
2018-08-23T22:01:38.093Z,93.69
2018-08-23T22:04:06.864Z,93.91
2018-08-23T22:06:35.589Z,92.86
2018-08-23T22:09:05.070Z,95.09
2018-08-23T22:11:33.805Z,95.48
2018-08-23T22:14:02.517Z,95.58
2018-08-23T22:16:31.242Z,96.43
2018-08-23T22:18:59.962Z,96.35
2018-08-23T22:21:28.715Z,96.89
2018-08-23T22:23:57.498Z,96.90
2018-08-23T22:26:26.258Z,97.95
2018-08-23T22:28:54.961Z,97.34
2018-08-23T22:31:23.669Z,96.57
2018-08-23T22:33:52.385Z,96.94
2018-08-23T22:36:21.116Z,97.16
2018-08-23T22:38:49.842Z,96.00
2018-08-23T22:41:18.557Z,95.41
2018-08-23T22:43:47.281Z,95.74
2018-08-23T22:46:16.006Z,96.22
2018-08-23T22:48:44.746Z,96.04
2018-08-23T22:51:13.450Z,95.95
2018-08-23T22:53:42.205Z,96.83
2018-08-23T22:56:10.945Z,97.02
2018-08-23T22:58:39.687Z,97.00
2018-08-23T23:01:08.410Z,96.74
2018-08-23T23:03:42.163Z,96.68
2018-08-23T23:06:10.928Z,96.89
2018-08-23T23:08:39.650Z,97.40
2018-08-23T23:11:08.386Z,97.37
2018-08-23T23:13:37.122Z,97.72
2018-08-23T23:16:05.818Z,98.65
2018-08-23T23:18:34.618Z,98.03
2018-08-23T23:21:03.342Z,97.21
2018-08-23T23:23:32.074Z,97.01
2018-08-23T23:26:00.773Z,97.47
2018-08-23T23:28:29.468Z,97.43
2018-08-23T23:30:58.170Z,97.68
2018-08-23T23:33:26.873Z,98.32
2018-08-23T23:35:55.612Z,98.19
2018-08-23T23:38:24.340Z,98.86
2018-08-23T23:40:53.056Z,98.72
2018-08-23T23:43:21.782Z,99.29
2018-08-23T23:45:50.511Z,99.36
2018-08-23T23:48:19.262Z,99.86
2018-08-23T23:50:47.980Z,100.00
2018-08-23T23:53:16.775Z,100.00
2018-08-23T23:55:45.504Z,100.00
2018-08-23T23:58:14.301Z,99.94
